Time;durP1;ratioP1;P1;durP2;ratioP2;P2;SDS_P1;SDS_P2;PMS_P1;PMS_P2;Temp;Humidity;BMP_temperature;BMP_pressure;BME280_temperature;BME280_humidity;BME280_pressure;Samples;Min_cycle;Max_cycle;Signal;HPM_P1;HPM_P2
2023/06/22 00:00:56;;;;;;;12.07;7.18;;;14.40;99.90;;;;;;5072851;28;20031;-71
2023/06/22 00:03:23;;;;;;;9.18;6.82;;;14.30;99.90;;;;;;5074756;28;20076;-71
2023/06/22 00:05:50;;;;;;;14.00;8.68;;;14.40;99.90;;;;;;5066552;28;20040;-71
2023/06/22 00:08:16;;;;;;;9.63;7.45;;;14.40;99.90;;;;;;5070021;28;20061;-71
2023/06/22 00:10:43;;;;;;;9.10;6.82;;;14.40;99.90;;;;;;5074871;28;20047;-71
2023/06/22 00:13:09;;;;;;;13.35;7.72;;;14.40;99.90;;;;;;5075490;28;20040;-71
2023/06/22 00:15:37;;;;;;;11.55;7.68;;;14.30;99.90;;;;;;5077004;28;20032;-71
2023/06/22 00:18:03;;;;;;;11.02;7.93;;;14.30;99.90;;;;;;5076204;28;20501;-71
2023/06/22 00:20:29;;;;;;;14.73;8.15;;;14.20;99.90;;;;;;5074689;28;20024;-71
2023/06/22 00:22:57;;;;;;;11.35;7.32;;;14.20;99.90;;;;;;5073508;28;20112;-71
2023/06/22 00:25:22;;;;;;;10.48;6.32;;;14.10;99.90;;;;;;5074237;28;20035;-71
2023/06/22 00:27:48;;;;;;;9.90;6.80;;;14.10;99.90;;;;;;5067294;28;20023;-71
2023/06/22 00:30:16;;;;;;;11.38;7.13;;;14.00;99.90;;;;;;5075913;28;20032;-71
2023/06/22 00:32:42;;;;;;;10.10;6.97;;;14.00;99.90;;;;;;5070360;28;20035;-71
2023/06/22 00:35:09;;;;;;;10.05;6.97;;;14.00;99.90;;;;;;5073807;28;20028;-71
2023/06/22 00:37:35;;;;;;;9.93;7.05;;;14.00;99.90;;;;;;5071359;28;20032;-71
2023/06/22 00:40:01;;;;;;;12.98;7.68;;;13.90;99.90;;;;;;5075806;28;20027;-71
2023/06/22 00:42:27;;;;;;;12.25;7.35;;;14.00;99.90;;;;;;5080435;28;20036;-71
2023/06/22 00:44:53;;;;;;;12.75;7.18;;;14.00;99.90;;;;;;5096788;28;20611;-71
2023/06/22 00:47:19;;;;;;;8.75;6.78;;;14.10;99.90;;;;;;5082841;28;20123;-71
2023/06/22 00:49:46;;;;;;;11.40;7.00;;;14.20;99.90;;;;;;5074444;28;20371;-71
2023/06/22 00:52:21;;;;;;;12.40;8.40;;;14.20;99.90;;;;;;5072337;28;20439;-71
2023/06/22 00:54:51;;;;;;;13.60;8.90;;;14.30;99.90;;;;;;5077795;28;20061;-71
2023/06/22 00:57:18;;;;;;;11.98;8.15;;;14.50;99.90;;;;;;5080204;28;20088;-71
2023/06/22 00:59:45;;;;;;;12.18;8.02;;;14.60;99.90;;;;;;5081865;28;20111;-72
2023/06/22 01:02:11;;;;;;;11.85;7.57;;;14.60;99.90;;;;;;5074062;28;20131;-71
2023/06/22 01:04:39;;;;;;;10.57;7.63;;;14.60;99.90;;;;;;5076146;28;20108;-71
2023/06/22 01:07:28;;;;;;;10.68;7.95;;;14.70;99.90;;;;;;5077324;28;20031;-71
2023/06/22 01:10:25;;;;;;;10.80;7.40;;;14.70;99.90;;;;;;5058471;28;20040;-71
2023/06/22 01:12:58;;;;;;;10.90;7.05;;;14.80;99.90;;;;;;5074594;28;20168;-72
2023/06/22 01:15:46;;;;;;;9.70;6.97;;;14.90;99.90;;;;;;5080997;28;20497;-70
2023/06/22 01:18:13;;;;;;;11.25;7.63;;;14.90;99.90;;;;;;5082119;28;20072;-71
2023/06/22 01:20:40;;;;;;;15.02;9.27;;;15.00;99.90;;;;;;5078316;28;20640;-71
2023/06/22 01:23:12;;;;;;;14.02;8.95;;;15.00;99.90;;;;;;5061927;28;20437;-71
2023/06/22 01:25:55;;;;;;;14.10;9.20;;;15.10;99.90;;;;;;5058331;28;20069;-71
2023/06/22 01:28:47;;;;;;;18.13;9.32;;;15.10;99.90;;;;;;5076229;28;20359;-71
2023/06/22 01:31:16;;;;;;;26.17;12.73;;;15.20;99.90;;;;;;5072707;28;20506;-71
2023/06/22 01:33:45;;;;;;;32.35;12.93;;;15.30;99.90;;;;;;5072937;28;20104;-72
2023/06/22 01:36:11;;;;;;;27.42;13.20;;;15.40;99.90;;;;;;5076868;28;20483;-71
2023/06/22 01:38:38;;;;;;;26.45;11.60;;;15.50;99.90;;;;;;5078254;28;20039;-70
2023/06/22 01:41:04;;;;;;;26.27;11.70;;;15.50;99.90;;;;;;5079925;28;20032;-71
2023/06/22 01:43:30;;;;;;;27.73;12.57;;;15.50;99.90;;;;;;5075560;28;20174;-71
2023/06/22 01:45:58;;;;;;;33.05;13.85;;;15.60;99.90;;;;;;5079153;28;20024;-71
2023/06/22 01:48:25;;;;;;;33.55;15.40;;;15.60;99.90;;;;;;5082081;28;20043;-71
2023/06/22 01:50:52;;;;;;;37.33;15.73;;;15.60;99.90;;;;;;5069836;28;20024;-71
2023/06/22 01:53:18;;;;;;;32.92;14.57;;;15.70;99.90;;;;;;5071645;28;20062;-71
2023/06/22 01:55:43;;;;;;;41.83;15.50;;;15.70;99.90;;;;;;5077315;28;20522;-71
2023/06/22 01:58:09;;;;;;;34.78;15.13;;;15.70;99.90;;;;;;5069811;28;20455;-71
2023/06/22 02:00:40;;;;;;;39.72;15.65;;;15.70;99.90;;;;;;5074715;28;20081;-71
2023/06/22 02:03:18;;;;;;;41.60;17.20;;;15.70;99.90;;;;;;5076388;28;20499;-71
2023/06/22 02:05:56;;;;;;;34.00;14.95;;;15.70;99.90;;;;;;5077741;28;20047;-71
2023/06/22 02:08:30;;;;;;;50.00;17.10;;;15.70;99.90;;;;;;5090486;28;20550;-71
2023/06/22 02:10:57;;;;;;;35.55;15.57;;;15.70;99.90;;;;;;5099539;28;20028;-72
2023/06/22 02:13:24;;;;;;;35.67;16.05;;;15.70;99.90;;;;;;5079285;28;20532;-71
2023/06/22 02:15:50;;;;;;;38.85;15.88;;;15.70;99.90;;;;;;5079035;28;20055;-71
2023/06/22 02:18:16;;;;;;;38.97;16.58;;;15.70;99.90;;;;;;5077678;28;20032;-71
2023/06/22 02:20:42;;;;;;;33.42;15.15;;;15.70;99.90;;;;;;5076927;28;20035;-71
2023/06/22 02:23:08;;;;;;;40.42;15.70;;;15.70;99.90;;;;;;5077162;28;20040;-71
2023/06/22 02:25:35;;;;;;;28.55;13.65;;;15.70;99.90;;;;;;5089065;28;20046;-71
2023/06/22 02:28:00;;;;;;;27.95;13.40;;;15.70;99.90;;;;;;5078266;28;20028;-71
2023/06/22 02:30:26;;;;;;;24.67;12.30;;;15.70;99.90;;;;;;5058996;28;20498;-71
2023/06/22 02:32:58;;;;;;;25.55;13.20;;;15.60;99.90;;;;;;5062988;28;20028;-71
2023/06/22 02:35:25;;;;;;;25.70;12.30;;;15.60;99.90;;;;;;5078016;28;20206;-71
2023/06/22 02:37:51;;;;;;;70.60;13.88;;;15.60;99.90;;;;;;5075542;28;20121;-71
2023/06/22 02:40:17;;;;;;;27.50;13.05;;;15.60;99.90;;;;;;5078663;28;20020;-71
2023/06/22 02:42:43;;;;;;;31.25;14.10;;;15.60;99.90;;;;;;5092778;28;20027;-71
2023/06/22 02:45:09;;;;;;;23.80;11.52;;;15.60;99.90;;;;;;5076801;28;20115;-71
2023/06/22 02:47:35;;;;;;;24.33;11.55;;;15.60;99.90;;;;;;5077767;28;20047;-71
2023/06/22 02:50:01;;;;;;;21.13;11.27;;;15.50;99.90;;;;;;5071340;28;20036;-71
2023/06/22 02:52:26;;;;;;;23.85;11.48;;;15.50;99.90;;;;;;5077988;28;20066;-71
2023/06/22 02:54:52;;;;;;;23.02;10.50;;;15.50;99.90;;;;;;5077357;28;20376;-71
2023/06/22 02:57:18;;;;;;;21.20;10.02;;;15.50;99.90;;;;;;5077438;28;20094;-71
2023/06/22 02:59:43;;;;;;;18.65;9.82;;;15.50;99.90;;;;;;5072996;28;20025;-71
2023/06/22 03:02:09;;;;;;;18.45;9.77;;;15.50;99.90;;;;;;5063759;28;20040;-71
2023/06/22 03:04:38;;;;;;;23.17;11.23;;;15.50;99.90;;;;;;5075421;28;20044;-71
2023/06/22 03:07:04;;;;;;;22.05;11.35;;;15.60;99.90;;;;;;5074427;28;20043;-71
2023/06/22 03:09:30;;;;;;;18.40;10.15;;;15.60;99.90;;;;;;5073925;28;20123;-71
2023/06/22 03:11:56;;;;;;;18.67;10.02;;;15.60;99.90;;;;;;5057917;28;20115;-71
2023/06/22 03:14:21;;;;;;;21.75;11.38;;;15.60;99.90;;;;;;5055846;28;20024;-71
2023/06/22 03:16:47;;;;;;;18.77;9.82;;;15.70;99.90;;;;;;5073051;28;20070;-71
2023/06/22 03:19:13;;;;;;;21.95;11.07;;;15.70;99.90;;;;;;5077481;28;20101;-72
2023/06/22 03:21:40;;;;;;;22.40;10.98;;;15.80;99.90;;;;;;5077370;28;20515;-71
2023/06/22 03:24:06;;;;;;;34.13;10.60;;;15.80;99.90;;;;;;5077924;28;20047;-71
2023/06/22 03:26:32;;;;;;;24.67;10.38;;;15.60;99.90;;;;;;5076995;28;20028;-72
2023/06/22 03:28:58;;;;;;;20.35;10.85;;;15.60;99.90;;;;;;5076631;28;20035;-71
2023/06/22 03:31:24;;;;;;;27.27;9.85;;;15.60;99.90;;;;;;5077316;28;20410;-72
2023/06/22 03:33:50;;;;;;;22.83;11.07;;;15.60;99.90;;;;;;5093501;28;20032;-72
2023/06/22 03:36:20;;;;;;;27.92;11.15;;;15.70;99.90;;;;;;5095093;28;20084;-72
2023/06/22 03:38:47;;;;;;;19.67;10.57;;;15.70;99.90;;;;;;5074216;28;20028;-72
2023/06/22 03:41:13;;;;;;;30.02;10.57;;;15.70;99.90;;;;;;5075666;28;20180;-72
2023/06/22 03:43:39;;;;;;;20.85;9.90;;;15.70;99.90;;;;;;5076120;28;20055;-72
2023/06/22 03:46:05;;;;;;;19.05;9.85;;;15.70;99.90;;;;;;5077959;28;20131;-72
2023/06/22 03:48:30;;;;;;;19.58;10.27;;;15.80;99.90;;;;;;5074546;28;20176;-72
2023/06/22 03:50:56;;;;;;;24.42;10.82;;;15.80;99.90;;;;;;5093329;28;20024;-72
2023/06/22 03:53:22;;;;;;;22.77;11.30;;;15.80;99.90;;;;;;5077167;28;20040;-72
2023/06/22 03:55:50;;;;;;;24.52;10.63;;;15.80;99.90;;;;;;5076440;28;20111;-72
2023/06/22 03:58:16;;;;;;;19.17;11.15;;;15.80;99.90;;;;;;5076237;28;20059;-72
2023/06/22 04:00:41;;;;;;;18.42;10.60;;;15.80;99.90;;;;;;5077333;28;20668;-72
2023/06/22 04:03:07;;;;;;;19.15;10.85;;;15.80;99.90;;;;;;5075595;28;20147;-72
2023/06/22 04:05:33;;;;;;;20.23;11.40;;;15.80;99.90;;;;;;5073515;28;20138;-72
2023/06/22 04:07:58;;;;;;;25.13;10.88;;;15.90;99.90;;;;;;5079614;28;20055;-72
2023/06/22 04:10:24;;;;;;;18.83;11.32;;;15.90;99.90;;;;;;5076515;28;20032;-72
2023/06/22 04:12:50;;;;;;;19.33;10.98;;;15.80;99.90;;;;;;5056822;28;20028;-72
2023/06/22 04:15:15;;;;;;;21.15;12.27;;;15.80;99.90;;;;;;5056636;28;20036;-72
2023/06/22 04:17:41;;;;;;;18.90;10.75;;;15.90;99.90;;;;;;5067341;28;20035;-72
2023/06/22 04:20:07;;;;;;;21.83;13.00;;;15.90;99.90;;;;;;5074220;28;20107;-72
2023/06/22 04:22:33;;;;;;;24.38;11.85;;;16.00;99.90;;;;;;5074958;28;20065;-71
2023/06/22 04:24:58;;;;;;;22.25;11.20;;;16.10;99.90;;;;;;5095270;28;20027;-72
2023/06/22 04:27:24;;;;;;;21.48;11.63;;;16.10;99.90;;;;;;5074954;28;20083;-72
2023/06/22 04:29:51;;;;;;;17.58;11.13;;;16.20;99.90;;;;;;5075339;28;20505;-72
2023/06/22 04:32:17;;;;;;;20.80;12.05;;;16.30;99.90;;;;;;5071473;28;20130;-72
2023/06/22 04:34:43;;;;;;;19.73;11.63;;;16.40;99.90;;;;;;5074104;28;20036;-72
2023/06/22 04:37:09;;;;;;;17.88;11.65;;;16.50;99.90;;;;;;5071149;28;20110;-72
2023/06/22 04:39:35;;;;;;;19.90;11.20;;;16.60;99.90;;;;;;5072716;28;20155;-72
2023/06/22 04:42:01;;;;;;;24.17;11.55;;;16.70;99.90;;;;;;5072684;28;20016;-72
2023/06/22 04:44:27;;;;;;;16.95;10.82;;;16.80;99.90;;;;;;5073517;28;20024;-72
2023/06/22 04:46:59;;;;;;;17.08;10.68;;;16.80;99.90;;;;;;5070623;28;20024;-72
2023/06/22 04:49:32;;;;;;;17.75;10.45;;;16.90;99.90;;;;;;5056043;28;20047;-72
2023/06/22 04:52:03;;;;;;;14.93;9.68;;;16.90;99.90;;;;;;5072233;28;20027;-72
2023/06/22 04:54:29;;;;;;;16.73;10.83;;;17.10;99.90;;;;;;5076429;28;20039;-72
2023/06/22 04:56:57;;;;;;;17.77;10.52;;;17.10;99.90;;;;;;5073960;28;20039;-72
2023/06/22 04:59:30;;;;;;;16.17;10.15;;;17.10;99.90;;;;;;5077938;28;20104;-72
2023/06/22 05:02:00;;;;;;;16.75;10.75;;;17.30;99.90;;;;;;5070001;28;20591;-72
2023/06/22 05:04:27;;;;;;;17.55;11.20;;;17.30;99.90;;;;;;5070708;28;20064;-72
2023/06/22 05:06:54;;;;;;;19.10;11.75;;;17.20;99.90;;;;;;5066248;28;20050;-72
2023/06/22 05:09:20;;;;;;;16.83;10.75;;;17.20;99.90;;;;;;5068574;28;20047;-72
2023/06/22 05:11:46;;;;;;;19.20;10.95;;;17.30;99.90;;;;;;5060673;28;20104;-72
2023/06/22 05:14:12;;;;;;;20.13;11.30;;;17.40;99.90;;;;;;5076308;28;20098;-72
2023/06/22 05:16:39;;;;;;;20.67;11.90;;;17.40;99.90;;;;;;5072133;28;20115;-72
2023/06/22 05:19:04;;;;;;;20.85;12.00;;;17.50;99.90;;;;;;5064784;28;20644;-72
2023/06/22 05:21:31;;;;;;;22.10;13.32;;;17.50;99.90;;;;;;5071905;28;20099;-72
2023/06/22 05:24:02;;;;;;;23.88;12.77;;;17.50;99.90;;;;;;5072622;28;20040;-72
2023/06/22 05:26:28;;;;;;;22.20;12.57;;;17.60;99.90;;;;;;5074829;28;20463;-72
2023/06/22 05:28:54;;;;;;;19.55;11.75;;;17.50;99.90;;;;;;5070730;28;20054;-72
2023/06/22 05:31:20;;;;;;;22.75;12.10;;;17.50;99.90;;;;;;5073557;28;20040;-72
2023/06/22 05:33:46;;;;;;;21.40;12.23;;;17.70;99.90;;;;;;5073371;28;20046;-72
2023/06/22 05:36:13;;;;;;;21.55;10.50;;;17.80;99.90;;;;;;5071965;28;20024;-72
2023/06/22 05:38:39;;;;;;;20.42;12.00;;;17.90;99.90;;;;;;5071834;28;20493;-72
2023/06/22 05:41:05;;;;;;;24.05;12.27;;;18.00;99.90;;;;;;5074035;28;20035;-72
2023/06/22 05:43:31;;;;;;;20.45;12.02;;;18.00;99.90;;;;;;5078115;28;20032;-72
2023/06/22 05:45:57;;;;;;;20.05;11.50;;;18.00;99.90;;;;;;5079185;28;20028;-72
2023/06/22 05:48:23;;;;;;;18.73;11.20;;;18.10;99.90;;;;;;5084309;28;20550;-72
2023/06/22 05:50:49;;;;;;;18.83;11.13;;;18.20;99.90;;;;;;5086164;28;20024;-72
2023/06/22 05:53:15;;;;;;;21.95;11.40;;;18.30;99.90;;;;;;5078459;28;20040;-72
2023/06/22 05:55:40;;;;;;;21.60;11.95;;;18.40;99.90;;;;;;5079411;28;20024;-72
2023/06/22 05:58:06;;;;;;;20.42;11.07;;;18.60;99.90;;;;;;5078715;28;20599;-72
2023/06/22 06:00:32;;;;;;;16.67;10.35;;;18.80;99.90;;;;;;5075858;28;20410;-71
2023/06/22 06:03:03;;;;;;;18.33;10.60;;;18.90;99.90;;;;;;5062407;28;20128;-72
2023/06/22 06:05:30;;;;;;;17.70;9.63;;;19.10;99.90;;;;;;5065224;28;20051;-72
2023/06/22 06:07:56;;;;;;;454.38;274.02;;;19.40;99.90;;;;;;5078476;28;20090;-72
2023/06/22 06:10:21;;;;;;;21.30;12.25;;;19.60;99.90;;;;;;5079648;28;20027;-72
2023/06/22 06:12:47;;;;;;;14.45;10.10;;;19.70;99.90;;;;;;5076287;28;20047;-72
2023/06/22 06:15:13;;;;;;;17.85;10.60;;;19.80;99.90;;;;;;5074398;28;20032;-72
2023/06/22 06:17:47;;;;;;;16.90;11.13;;;19.80;99.90;;;;;;5074961;28;20054;-72
2023/06/22 06:20:13;;;;;;;19.08;10.75;;;19.70;99.90;;;;;;5076021;28;20107;-72
2023/06/22 06:22:39;;;;;;;15.90;9.70;;;19.80;99.90;;;;;;5083476;28;20035;-71
2023/06/22 06:25:05;;;;;;;104.80;63.67;;;19.90;99.90;;;;;;5075889;28;20101;-71
2023/06/22 06:27:31;;;;;;;20.42;12.82;;;20.00;99.90;;;;;;5073110;28;20031;-72
2023/06/22 06:29:57;;;;;;;15.38;9.68;;;20.10;99.90;;;;;;5070083;28;20036;-72
2023/06/22 06:32:22;;;;;;;15.63;9.27;;;20.10;99.90;;;;;;5074808;28;20487;-71
2023/06/22 06:34:48;;;;;;;14.15;9.10;;;20.00;99.90;;;;;;5073670;28;20028;-72
2023/06/22 06:37:14;;;;;;;12.93;9.18;;;20.00;99.90;;;;;;5067548;28;20214;-72
2023/06/22 06:39:39;;;;;;;13.82;9.80;;;20.00;99.90;;;;;;5067103;28;20060;-72
2023/06/22 06:42:05;;;;;;;18.70;11.40;;;20.10;99.90;;;;;;5069441;28;20043;-72
2023/06/22 06:44:31;;;;;;;14.52;9.27;;;20.10;99.90;;;;;;5085300;28;20103;-71
2023/06/22 06:46:57;;;;;;;14.45;8.75;;;20.00;99.90;;;;;;5064070;28;20104;-71
2023/06/22 06:49:22;;;;;;;16.27;9.55;;;20.00;99.90;;;;;;5064914;28;20063;-71
2023/06/22 06:51:48;;;;;;;13.77;9.20;;;20.10;99.90;;;;;;5074893;28;20032;-71
2023/06/22 06:54:13;;;;;;;16.35;10.20;;;20.20;99.90;;;;;;5075020;28;20020;-71
2023/06/22 06:56:39;;;;;;;14.63;9.90;;;20.40;99.90;;;;;;5074556;28;20046;-72
2023/06/22 06:59:05;;;;;;;13.85;9.77;;;20.40;99.90;;;;;;5068386;28;20104;-71
2023/06/22 07:01:33;;;;;;;16.02;10.32;;;20.60;99.90;;;;;;5076667;28;20035;-71
2023/06/22 07:04:00;;;;;;;16.55;9.93;;;20.70;99.90;;;;;;5078307;28;20078;-72
2023/06/22 07:06:28;;;;;;;15.40;9.95;;;20.80;99.90;;;;;;5060431;28;20136;-71
2023/06/22 07:08:55;;;;;;;15.98;9.95;;;20.70;99.90;;;;;;5058536;28;20036;-71
2023/06/22 07:11:21;;;;;;;18.85;11.20;;;20.90;99.90;;;;;;5057649;28;20374;-71
2023/06/22 07:13:46;;;;;;;13.80;9.98;;;21.00;99.90;;;;;;5084624;28;20039;-71
2023/06/22 07:16:12;;;;;;;18.73;10.68;;;21.10;99.90;;;;;;5095262;28;20070;-71
2023/06/22 07:18:40;;;;;;;15.57;9.85;;;21.30;99.90;;;;;;5075086;28;20089;-71
2023/06/22 07:21:06;;;;;;;13.85;9.85;;;21.40;99.90;;;;;;5075623;28;20031;-72
2023/06/22 07:23:32;;;;;;;14.57;9.90;;;21.70;99.90;;;;;;5073013;28;20036;-71
2023/06/22 07:26:01;;;;;;;14.45;9.65;;;21.80;99.90;;;;;;5075416;28;20028;-71
2023/06/22 07:28:29;;;;;;;13.95;10.20;;;21.90;99.90;;;;;;5068784;28;20510;-72
2023/06/22 07:30:55;;;;;;;13.88;8.98;;;21.90;99.90;;;;;;5070979;28;20020;-71
2023/06/22 07:33:20;;;;;;;15.07;9.30;;;21.90;99.90;;;;;;5059616;28;20027;-72
2023/06/22 07:35:47;;;;;;;13.23;8.00;;;22.30;99.90;;;;;;5069298;28;20529;-72
2023/06/22 07:38:14;;;;;;;12.27;8.93;;;24.10;99.90;;;;;;5072301;28;20109;-71
2023/06/22 07:40:41;;;;;;;13.15;8.20;;;25.80;99.90;;;;;;5066355;28;20031;-72
2023/06/22 07:43:07;;;;;;;9.70;7.93;;;26.50;99.90;;;;;;5071589;28;20136;-72
2023/06/22 07:45:34;;;;;;;12.70;7.70;;;26.50;99.90;;;;;;5075593;28;20028;-72
2023/06/22 07:48:00;;;;;;;12.95;8.50;;;26.50;99.90;;;;;;5075266;28;20059;-71
2023/06/22 07:50:26;;;;;;;11.23;8.23;;;26.70;99.90;;;;;;5065455;28;20863;-73
2023/06/22 07:52:52;;;;;;;10.15;8.25;;;26.70;99.90;;;;;;5068403;28;20024;-72
2023/06/22 07:55:18;;;;;;;11.40;8.00;;;26.70;99.90;;;;;;5067737;28;20843;-72
2023/06/22 07:57:44;;;;;;;11.40;8.98;;;26.40;99.90;;;;;;5070850;28;20028;-71
2023/06/22 08:00:14;;;;;;;13.23;7.80;;;26.80;99.90;;;;;;5070311;28;20028;-73
2023/06/22 08:02:44;;;;;;;8.45;6.32;;;28.70;99.90;;;;;;5065803;28;20097;-71
2023/06/22 08:05:11;;;;;;;9.65;6.20;;;30.80;97.50;;;;;;5075552;28;20053;-72
2023/06/22 08:07:37;;;;;;;8.70;6.20;;;32.10;91.60;;;;;;5075642;28;20048;-72
2023/06/22 08:10:04;;;;;;;7.47;5.45;;;33.20;85.80;;;;;;5073302;28;20099;-74
2023/06/22 08:12:29;;;;;;;9.32;5.75;;;34.30;78.60;;;;;;5057086;28;20139;-72
2023/06/22 08:14:56;;;;;;;7.65;5.43;;;35.70;72.40;;;;;;5071646;28;20107;-72
2023/06/22 08:17:23;;;;;;;8.02;5.30;;;36.40;66.30;;;;;;5089953;22;20058;-78
2023/06/22 08:19:48;;;;;;;6.13;5.32;;;37.70;57.40;;;;;;5090323;28;20074;-78
2023/06/22 08:22:15;;;;;;;6.65;4.90;;;37.70;55.50;;;;;;5084770;27;20550;-78
2023/06/22 08:24:42;;;;;;;6.82;5.00;;;36.90;55.40;;;;;;5067326;28;20131;-78
2023/06/22 08:27:15;;;;;;;8.27;4.93;;;35.80;57.50;;;;;;5070986;28;20467;-78
2023/06/22 08:29:45;;;;;;;6.57;4.57;;;35.00;59.10;;;;;;5068460;28;20121;-78
2023/06/22 08:32:12;;;;;;;5.95;4.53;;;34.70;60.40;;;;;;5069283;28;20032;-78
2023/06/22 08:34:41;;;;;;;6.68;4.82;;;35.20;60.10;;;;;;5070495;28;20589;-80
2023/06/22 08:37:10;;;;;;;9.73;4.85;;;36.80;60.00;;;;;;5065034;28;20111;-79
2023/06/22 08:39:36;;;;;;;6.90;4.75;;;38.20;55.30;;;;;;5064626;28;20050;-79
2023/06/22 08:42:02;;;;;;;8.15;5.05;;;39.10;52.30;;;;;;5075354;28;20024;-79
2023/06/22 08:44:27;;;;;;;5.88;4.30;;;39.80;51.10;;;;;;5070771;28;20135;-79
2023/06/22 08:46:53;;;;;;;5.32;4.00;;;40.80;49.60;;;;;;5070083;28;20021;-78
2023/06/22 08:49:18;;;;;;;5.97;3.70;;;41.40;47.30;;;;;;5074957;28;20509;-78
2023/06/22 08:51:45;;;;;;;5.25;3.55;;;41.90;44.80;;;;;;5071259;28;20035;-78
2023/06/22 08:54:12;;;;;;;4.97;3.35;;;42.40;44.50;;;;;;5065510;28;20044;-78
2023/06/22 08:56:38;;;;;;;4.47;2.83;;;42.70;43.90;;;;;;5074404;28;20097;-78
2023/06/22 08:59:04;;;;;;;3.92;2.70;;;42.80;42.10;;;;;;5075556;28;20028;-78
2023/06/22 09:01:29;;;;;;;4.85;3.05;;;43.20;41.80;;;;;;5064379;28;20143;-79
2023/06/22 09:03:57;;;;;;;4.88;3.03;;;42.10;40.80;;;;;;5063702;28;20041;-79
2023/06/22 09:06:23;;;;;;;5.13;3.08;;;40.00;40.70;;;;;;5062494;28;20108;-78
2023/06/22 09:08:49;;;;;;;5.63;3.17;;;41.40;43.20;;;;;;5077659;28;20034;-78
2023/06/22 09:11:14;;;;;;;4.15;2.95;;;43.00;44.20;;;;;;5078809;28;20040;-78
2023/06/22 09:13:40;;;;;;;4.85;2.58;;;43.80;39.60;;;;;;5080049;28;20386;-78
2023/06/22 09:16:06;;;;;;;3.45;2.60;;;44.10;39.10;;;;;;5075257;28;20044;-78
2023/06/22 09:18:32;;;;;;;3.70;2.40;;;44.50;36.00;;;;;;5076869;28;20123;-78
2023/06/22 09:20:57;;;;;;;3.47;2.22;;;44.80;36.30;;;;;;5078622;28;20534;-78
2023/06/22 09:23:23;;;;;;;4.45;2.70;;;45.10;36.70;;;;;;5079240;28;20379;-79
2023/06/22 09:25:48;;;;;;;5.38;2.88;;;45.10;38.60;;;;;;5072861;28;20400;-79
2023/06/22 09:28:15;;;;;;;4.63;2.45;;;45.00;36.30;;;;;;5074621;28;20127;-79
2023/06/22 09:30:42;;;;;;;4.57;3.10;;;45.00;37.00;;;;;;5075340;28;20031;-80
2023/06/22 09:33:08;;;;;;;4.22;2.75;;;44.80;36.70;;;;;;5075983;28;20028;-79
2023/06/22 09:35:34;;;;;;;4.70;2.90;;;44.20;37.00;;;;;;5071651;28;20036;-79
2023/06/22 09:37:59;;;;;;;4.07;3.22;;;44.30;38.50;;;;;;5073402;28;20031;-79
2023/06/22 09:40:25;;;;;;;5.78;2.65;;;44.10;36.50;;;;;;5073644;28;20481;-79
2023/06/22 09:42:51;;;;;;;5.78;2.75;;;44.30;37.50;;;;;;5073821;28;20150;-80
2023/06/22 09:45:16;;;;;;;4.20;2.60;;;44.80;37.50;;;;;;5063462;28;20066;-79
2023/06/22 09:47:42;;;;;;;3.88;2.22;;;45.30;38.00;;;;;;5080157;28;20044;-81
2023/06/22 09:50:08;;;;;;;4.03;2.30;;;45.80;36.30;;;;;;5081299;28;20061;-79
2023/06/22 09:52:34;;;;;;;3.45;2.15;;;45.30;34.40;;;;;;5082228;28;20522;-80
2023/06/22 09:54:59;;;;;;;2.67;1.80;;;45.50;35.00;;;;;;5082901;28;20110;-79
2023/06/22 09:57:25;;;;;;;3.15;2.50;;;45.60;35.40;;;;;;5082440;28;20080;-78
2023/06/22 09:59:51;;;;;;;5.75;2.50;;;45.70;36.90;;;;;;5080974;28;20037;-79
2023/06/22 10:02:17;;;;;;;5.03;2.42;;;44.60;34.40;;;;;;5081107;28;20074;-80
2023/06/22 10:04:42;;;;;;;5.70;2.85;;;44.50;36.70;;;;;;5079815;28;20028;-80
2023/06/22 10:07:08;;;;;;;2.85;2.40;;;44.20;34.30;;;;;;5069099;28;20055;-80
2023/06/22 10:09:34;;;;;;;2.63;2.08;;;44.50;33.70;;;;;;5076038;28;20025;-80
2023/06/22 10:11:59;;;;;;;4.13;2.40;;;44.50;34.00;;;;;;5077800;28;20040;-79
2023/06/22 10:14:27;;;;;;;4.95;2.13;;;44.40;32.80;;;;;;5077846;28;20032;-79
2023/06/22 10:16:53;;;;;;;3.65;2.22;;;44.60;34.20;;;;;;5068173;28;20113;-80
2023/06/22 10:19:18;;;;;;;3.70;2.05;;;44.60;35.40;;;;;;5077815;28;20103;-79
2023/06/22 10:21:44;;;;;;;3.83;1.75;;;44.30;33.90;;;;;;5076775;28;20107;-80
2023/06/22 10:24:09;;;;;;;3.38;1.92;;;44.00;35.60;;;;;;5077756;28;20032;-80
2023/06/22 10:26:36;;;;;;;3.00;2.03;;;44.50;35.30;;;;;;5073838;28;20139;-79
2023/06/22 10:29:03;;;;;;;2.67;1.80;;;44.90;31.70;;;;;;5065500;28;20818;-79
2023/06/22 10:31:28;;;;;;;3.42;2.05;;;45.30;34.20;;;;;;5073441;28;20067;-79
2023/06/22 10:33:55;;;;;;;3.47;1.70;;;45.80;33.30;;;;;;5065568;28;20075;-80
2023/06/22 10:36:24;;;;;;;2.92;1.90;;;46.30;32.20;;;;;;5064794;28;20111;-81
2023/06/22 10:38:50;;;;;;;3.55;1.80;;;46.60;32.80;;;;;;5080063;28;20047;-79
2023/06/22 10:41:16;;;;;;;2.60;1.70;;;46.30;30.00;;;;;;5078541;28;20889;-80
2023/06/22 10:43:42;;;;;;;3.60;1.60;;;46.00;32.10;;;;;;5078228;28;20044;-80
2023/06/22 10:46:07;;;;;;;3.03;1.55;;;45.50;29.60;;;;;;5078364;28;20154;-79
2023/06/22 10:48:33;;;;;;;2.80;1.83;;;45.30;30.90;;;;;;5064334;28;20028;-80
2023/06/22 10:50:59;;;;;;;2.85;1.80;;;45.10;31.30;;;;;;5057416;28;20071;-79
2023/06/22 10:53:24;;;;;;;2.53;1.60;;;45.40;33.80;;;;;;5072639;28;20028;-80
2023/06/22 10:55:50;;;;;;;4.07;1.48;;;45.30;31.10;;;;;;5075774;28;20028;-82
2023/06/22 10:58:18;;;;;;;1.98;1.40;;;45.70;32.90;;;;;;5077096;28;20114;-79
2023/06/22 11:00:43;;;;;;;4.80;1.80;;;46.10;32.40;;;;;;5075828;28;20020;-79
2023/06/22 11:03:09;;;;;;;2.97;1.90;;;45.70;31.40;;;;;;5073983;28;20445;-79
2023/06/22 11:05:34;;;;;;;2.63;1.65;;;44.50;30.60;;;;;;5073797;28;20024;-79
2023/06/22 11:08:00;;;;;;;3.58;1.50;;;44.20;31.60;;;;;;5075013;28;20032;-79
2023/06/22 11:10:26;;;;;;;2.00;1.60;;;44.20;32.10;;;;;;5071055;28;20115;-80
2023/06/22 11:12:53;;;;;;;3.05;1.42;;;44.60;31.90;;;;;;5076341;28;20134;-79
2023/06/22 11:15:18;;;;;;;1.58;1.40;;;45.00;33.40;;;;;;5064870;28;20028;-78
2023/06/22 11:17:44;;;;;;;2.67;1.38;;;44.90;29.80;;;;;;5074965;28;20056;-78
2023/06/22 11:20:13;;;;;;;2.75;1.70;;;44.30;30.40;;;;;;5075543;28;20035;-78
2023/06/22 11:22:42;;;;;;;3.30;1.67;;;43.80;32.90;;;;;;5074001;28;20036;-78
2023/06/22 11:25:08;;;;;;;2.17;1.63;;;42.20;30.70;;;;;;5066423;28;20100;-77
2023/06/22 11:27:35;;;;;;;2.08;1.40;;;41.30;33.20;;;;;;5065397;28;20088;-77
2023/06/22 11:30:00;;;;;;;2.60;2.00;;;40.90;36.30;;;;;;5079344;28;20039;-78
2023/06/22 11:32:26;;;;;;;3.13;1.80;;;40.00;35.50;;;;;;5077301;28;20032;-80
2023/06/22 11:34:52;;;;;;;2.33;1.77;;;38.80;39.60;;;;;;5077330;28;20051;-78
2023/06/22 11:37:17;;;;;;;2.17;1.70;;;37.60;39.30;;;;;;5078229;28;20040;-78
2023/06/22 11:39:43;;;;;;;3.00;1.92;;;36.60;42.70;;;;;;5074051;28;20029;-78
2023/06/22 11:42:10;;;;;;;2.60;1.52;;;35.70;44.20;;;;;;5071618;28;20025;-76
2023/06/22 11:44:35;;;;;;;2.55;2.30;;;35.00;44.40;;;;;;5075394;28;20027;-78
2023/06/22 11:47:03;;;;;;;3.33;2.10;;;34.20;45.90;;;;;;5074815;28;20031;-78
2023/06/22 11:49:29;;;;;;;3.53;2.50;;;33.70;48.80;;;;;;5076524;28;20461;-78
2023/06/22 11:51:55;;;;;;;2.95;1.85;;;32.90;48.20;;;;;;5073023;28;20055;-78
2023/06/22 11:54:20;;;;;;;2.90;2.10;;;32.20;48.70;;;;;;5084636;28;20028;-77
2023/06/22 11:56:46;;;;;;;2.97;2.10;;;31.80;53.60;;;;;;5065680;28;20051;-78
2023/06/22 11:59:12;;;;;;;2.97;2.13;;;31.70;48.40;;;;;;5070845;28;20037;-78
2023/06/22 12:01:37;;;;;;;3.22;2.08;;;31.70;53.30;;;;;;5067727;28;20047;-78
2023/06/22 12:04:05;;;;;;;2.50;1.80;;;32.00;51.10;;;;;;5074212;28;20040;-77
2023/06/22 12:06:32;;;;;;;3.45;2.40;;;32.10;47.90;;;;;;5071071;28;20216;-77
2023/06/22 12:08:58;;;;;;;3.63;2.20;;;32.40;51.20;;;;;;5072972;28;20509;-78
2023/06/22 12:11:23;;;;;;;5.85;2.05;;;32.20;48.60;;;;;;5071498;28;20138;-77
2023/06/22 12:13:49;;;;;;;3.38;2.10;;;32.00;47.80;;;;;;5072975;28;20492;-78
2023/06/22 12:16:14;;;;;;;2.50;1.80;;;32.40;49.80;;;;;;5072476;28;20217;-79
2023/06/22 12:18:40;;;;;;;3.88;2.10;;;32.30;48.30;;;;;;5068039;28;20039;-77
2023/06/22 12:21:06;;;;;;;2.78;1.80;;;32.10;47.00;;;;;;5070844;28;20032;-78
2023/06/22 12:23:31;;;;;;;3.90;1.88;;;32.10;45.80;;;;;;5072958;28;20926;-77
2023/06/22 12:25:57;;;;;;;4.38;2.00;;;32.00;47.50;;;;;;5068790;28;20024;-77
2023/06/22 12:28:23;;;;;;;5.50;2.42;;;32.20;54.30;;;;;;5067709;28;20031;-78
2023/06/22 12:30:49;;;;;;;3.45;1.90;;;32.30;48.50;;;;;;5071823;28;20047;-78
2023/06/22 12:33:14;;;;;;;2.25;1.73;;;32.40;57.00;;;;;;5071324;28;20070;-78